sensor_id;sensor_type;location;lat;lon;timestamp;P1;durP1;ratioP1;P2;durP2;ratioP2
16832;SDS011;8533;48.426;10.868;2023-04-19T00:01:58;17.77;;;9.53;;
16832;SDS011;8533;48.426;10.868;2023-04-19T00:04:26;21.27;;;9.40;;
16832;SDS011;8533;48.426;10.868;2023-04-19T00:06:54;17.90;;;9.43;;
16832;SDS011;8533;48.426;10.868;2023-04-19T00:09:23;15.90;;;8.67;;
16832;SDS011;8533;48.426;10.868;2023-04-19T00:11:51;14.97;;;9.20;;
16832;SDS011;8533;48.426;10.868;2023-04-19T00:14:18;16.47;;;9.20;;
16832;SDS011;8533;48.426;10.868;2023-04-19T00:16:46;18.03;;;9.43;;
16832;SDS011;8533;48.426;10.868;2023-04-19T00:19:13;16.50;;;9.57;;
16832;SDS011;8533;48.426;10.868;2023-04-19T00:21:40;15.83;;;9.23;;
16832;SDS011;8533;48.426;10.868;2023-04-19T00:24:08;16.03;;;9.43;;
16832;SDS011;8533;48.426;10.868;2023-04-19T00:26:35;18.60;;;8.93;;
16832;SDS011;8533;48.426;10.868;2023-04-19T00:29:03;19.60;;;10.20;;
16832;SDS011;8533;48.426;10.868;2023-04-19T00:31:30;16.77;;;9.50;;
16832;SDS011;8533;48.426;10.868;2023-04-19T00:33:57;16.23;;;9.57;;
16832;SDS011;8533;48.426;10.868;2023-04-19T00:36:26;17.67;;;9.90;;
16832;SDS011;8533;48.426;10.868;2023-04-19T00:38:53;18.10;;;10.53;;
16832;SDS011;8533;48.426;10.868;2023-04-19T00:41:21;21.00;;;10.00;;
16832;SDS011;8533;48.426;10.868;2023-04-19T00:43:48;18.53;;;10.40;;
16832;SDS011;8533;48.426;10.868;2023-04-19T00:46:15;17.47;;;10.27;;
16832;SDS011;8533;48.426;10.868;2023-04-19T00:48:43;24.07;;;11.23;;
16832;SDS011;8533;48.426;10.868;2023-04-19T00:51:11;17.90;;;10.63;;
16832;SDS011;8533;48.426;10.868;2023-04-19T00:53:39;17.63;;;9.97;;
16832;SDS011;8533;48.426;10.868;2023-04-19T00:56:08;18.70;;;11.10;;
16832;SDS011;8533;48.426;10.868;2023-04-19T00:58:38;20.40;;;10.40;;
16832;SDS011;8533;48.426;10.868;2023-04-19T01:01:06;18.63;;;11.27;;
16832;SDS011;8533;48.426;10.868;2023-04-19T01:03:33;19.17;;;10.67;;
16832;SDS011;8533;48.426;10.868;2023-04-19T01:06:01;20.90;;;10.70;;
16832;SDS011;8533;48.426;10.868;2023-04-19T01:08:29;21.20;;;11.50;;
16832;SDS011;8533;48.426;10.868;2023-04-19T01:10:56;22.93;;;12.00;;
16832;SDS011;8533;48.426;10.868;2023-04-19T01:13:25;22.13;;;12.20;;
16832;SDS011;8533;48.426;10.868;2023-04-19T01:15:53;19.53;;;11.33;;
16832;SDS011;8533;48.426;10.868;2023-04-19T01:18:21;24.43;;;11.67;;
16832;SDS011;8533;48.426;10.868;2023-04-19T01:20:53;24.07;;;12.33;;
16832;SDS011;8533;48.426;10.868;2023-04-19T01:23:20;20.40;;;11.37;;
16832;SDS011;8533;48.426;10.868;2023-04-19T01:25:48;21.90;;;12.40;;
16832;SDS011;8533;48.426;10.868;2023-04-19T01:28:15;21.77;;;11.93;;
16832;SDS011;8533;48.426;10.868;2023-04-19T01:30:42;21.87;;;11.70;;
16832;SDS011;8533;48.426;10.868;2023-04-19T01:33:10;20.90;;;11.80;;
16832;SDS011;8533;48.426;10.868;2023-04-19T01:35:37;21.47;;;12.00;;
16832;SDS011;8533;48.426;10.868;2023-04-19T01:38:06;21.67;;;11.83;;
16832;SDS011;8533;48.426;10.868;2023-04-19T01:40:33;22.93;;;12.17;;
16832;SDS011;8533;48.426;10.868;2023-04-19T01:43:00;20.07;;;11.83;;
16832;SDS011;8533;48.426;10.868;2023-04-19T01:45:28;22.33;;;12.33;;
16832;SDS011;8533;48.426;10.868;2023-04-19T01:47:57;20.60;;;12.80;;
16832;SDS011;8533;48.426;10.868;2023-04-19T01:50:26;21.50;;;12.30;;
16832;SDS011;8533;48.426;10.868;2023-04-19T01:52:54;19.93;;;11.43;;
16832;SDS011;8533;48.426;10.868;2023-04-19T01:55:21;21.70;;;12.33;;
16832;SDS011;8533;48.426;10.868;2023-04-19T01:57:49;23.30;;;12.20;;
16832;SDS011;8533;48.426;10.868;2023-04-19T02:00:18;24.03;;;12.13;;
16832;SDS011;8533;48.426;10.868;2023-04-19T02:02:45;22.63;;;12.30;;
16832;SDS011;8533;48.426;10.868;2023-04-19T02:05:14;23.77;;;12.07;;
16832;SDS011;8533;48.426;10.868;2023-04-19T02:07:41;22.30;;;11.93;;
16832;SDS011;8533;48.426;10.868;2023-04-19T02:10:09;23.97;;;13.47;;
16832;SDS011;8533;48.426;10.868;2023-04-19T02:12:37;25.43;;;13.53;;
16832;SDS011;8533;48.426;10.868;2023-04-19T02:15:05;26.00;;;12.60;;
16832;SDS011;8533;48.426;10.868;2023-04-19T02:17:34;23.60;;;12.43;;
16832;SDS011;8533;48.426;10.868;2023-04-19T02:20:03;25.70;;;12.70;;
16832;SDS011;8533;48.426;10.868;2023-04-19T02:22:33;24.20;;;12.40;;
16832;SDS011;8533;48.426;10.868;2023-04-19T02:25:00;23.03;;;12.17;;
16832;SDS011;8533;48.426;10.868;2023-04-19T02:27:28;24.40;;;12.23;;
16832;SDS011;8533;48.426;10.868;2023-04-19T02:29:56;24.27;;;13.63;;
16832;SDS011;8533;48.426;10.868;2023-04-19T02:32:23;23.93;;;12.67;;
16832;SDS011;8533;48.426;10.868;2023-04-19T02:34:51;22.13;;;11.87;;
16832;SDS011;8533;48.426;10.868;2023-04-19T02:37:18;23.83;;;11.97;;
16832;SDS011;8533;48.426;10.868;2023-04-19T02:39:46;24.30;;;11.70;;
16832;SDS011;8533;48.426;10.868;2023-04-19T02:42:13;19.80;;;11.93;;
16832;SDS011;8533;48.426;10.868;2023-04-19T02:44:40;23.07;;;12.43;;
16832;SDS011;8533;48.426;10.868;2023-04-19T02:47:08;22.00;;;11.87;;
16832;SDS011;8533;48.426;10.868;2023-04-19T02:49:35;25.20;;;12.67;;
16832;SDS011;8533;48.426;10.868;2023-04-19T02:52:04;22.67;;;11.80;;
16832;SDS011;8533;48.426;10.868;2023-04-19T02:54:32;22.80;;;12.70;;
16832;SDS011;8533;48.426;10.868;2023-04-19T02:57:00;23.13;;;12.00;;
16832;SDS011;8533;48.426;10.868;2023-04-19T02:59:27;22.13;;;12.03;;
16832;SDS011;8533;48.426;10.868;2023-04-19T03:01:55;21.47;;;11.97;;
16832;SDS011;8533;48.426;10.868;2023-04-19T03:04:22;22.73;;;11.37;;
16832;SDS011;8533;48.426;10.868;2023-04-19T03:06:50;20.90;;;11.60;;
16832;SDS011;8533;48.426;10.868;2023-04-19T03:09:19;24.30;;;12.27;;
16832;SDS011;8533;48.426;10.868;2023-04-19T03:11:46;24.93;;;12.43;;
16832;SDS011;8533;48.426;10.868;2023-04-19T03:14:14;22.07;;;11.83;;
16832;SDS011;8533;48.426;10.868;2023-04-19T03:16:41;23.20;;;12.30;;
16832;SDS011;8533;48.426;10.868;2023-04-19T03:19:10;26.53;;;12.33;;
16832;SDS011;8533;48.426;10.868;2023-04-19T03:21:37;21.73;;;11.73;;
16832;SDS011;8533;48.426;10.868;2023-04-19T03:24:04;27.80;;;13.27;;
16832;SDS011;8533;48.426;10.868;2023-04-19T03:26:32;21.67;;;12.53;;
16832;SDS011;8533;48.426;10.868;2023-04-19T03:29:00;24.00;;;12.47;;
16832;SDS011;8533;48.426;10.868;2023-04-19T03:31:28;22.20;;;12.47;;
16832;SDS011;8533;48.426;10.868;2023-04-19T03:33:55;23.60;;;12.83;;
16832;SDS011;8533;48.426;10.868;2023-04-19T03:36:23;21.73;;;12.07;;
16832;SDS011;8533;48.426;10.868;2023-04-19T03:38:52;25.37;;;12.67;;
16832;SDS011;8533;48.426;10.868;2023-04-19T03:41:24;23.97;;;12.17;;
16832;SDS011;8533;48.426;10.868;2023-04-19T03:43:52;24.40;;;13.33;;
16832;SDS011;8533;48.426;10.868;2023-04-19T03:46:19;21.60;;;12.23;;
16832;SDS011;8533;48.426;10.868;2023-04-19T03:48:47;24.20;;;12.57;;
16832;SDS011;8533;48.426;10.868;2023-04-19T03:51:14;22.13;;;12.43;;
16832;SDS011;8533;48.426;10.868;2023-04-19T03:53:42;24.83;;;11.67;;
16832;SDS011;8533;48.426;10.868;2023-04-19T03:56:09;23.90;;;12.40;;
16832;SDS011;8533;48.426;10.868;2023-04-19T03:58:37;24.27;;;12.10;;
16832;SDS011;8533;48.426;10.868;2023-04-19T04:01:04;24.27;;;11.60;;
16832;SDS011;8533;48.426;10.868;2023-04-19T04:03:33;25.47;;;12.57;;
16832;SDS011;8533;48.426;10.868;2023-04-19T04:06:00;20.37;;;11.73;;
16832;SDS011;8533;48.426;10.868;2023-04-19T04:08:29;25.03;;;12.30;;
16832;SDS011;8533;48.426;10.868;2023-04-19T04:10:56;27.73;;;13.47;;
16832;SDS011;8533;48.426;10.868;2023-04-19T04:13:24;24.30;;;11.47;;
16832;SDS011;8533;48.426;10.868;2023-04-19T04:15:51;28.03;;;12.67;;
16832;SDS011;8533;48.426;10.868;2023-04-19T04:18:18;24.57;;;11.67;;
16832;SDS011;8533;48.426;10.868;2023-04-19T04:20:46;23.57;;;12.20;;
16832;SDS011;8533;48.426;10.868;2023-04-19T04:23:14;22.57;;;11.83;;
16832;SDS011;8533;48.426;10.868;2023-04-19T04:25:41;21.23;;;11.13;;
16832;SDS011;8533;48.426;10.868;2023-04-19T04:28:09;26.57;;;11.90;;
16832;SDS011;8533;48.426;10.868;2023-04-19T04:30:36;23.20;;;11.27;;
16832;SDS011;8533;48.426;10.868;2023-04-19T04:33:05;23.13;;;10.97;;
16832;SDS011;8533;48.426;10.868;2023-04-19T04:35:33;22.10;;;11.00;;
16832;SDS011;8533;48.426;10.868;2023-04-19T04:38:00;21.70;;;11.07;;
16832;SDS011;8533;48.426;10.868;2023-04-19T04:40:28;22.30;;;11.90;;
16832;SDS011;8533;48.426;10.868;2023-04-19T04:42:55;25.60;;;12.87;;
16832;SDS011;8533;48.426;10.868;2023-04-19T04:45:24;20.40;;;11.50;;
16832;SDS011;8533;48.426;10.868;2023-04-19T04:47:53;25.67;;;11.87;;
16832;SDS011;8533;48.426;10.868;2023-04-19T04:50:21;25.10;;;11.73;;
16832;SDS011;8533;48.426;10.868;2023-04-19T04:52:48;26.07;;;11.97;;
16832;SDS011;8533;48.426;10.868;2023-04-19T04:55:16;22.63;;;12.30;;
16832;SDS011;8533;48.426;10.868;2023-04-19T04:57:43;19.30;;;10.63;;
16832;SDS011;8533;48.426;10.868;2023-04-19T05:00:11;25.83;;;11.73;;
16832;SDS011;8533;48.426;10.868;2023-04-19T05:02:39;26.83;;;11.73;;
16832;SDS011;8533;48.426;10.868;2023-04-19T05:05:06;23.67;;;12.30;;
16832;SDS011;8533;48.426;10.868;2023-04-19T05:07:36;23.40;;;11.60;;
16832;SDS011;8533;48.426;10.868;2023-04-19T05:10:04;21.43;;;11.77;;
16832;SDS011;8533;48.426;10.868;2023-04-19T05:12:32;24.33;;;11.43;;
16832;SDS011;8533;48.426;10.868;2023-04-19T05:15:00;22.57;;;11.30;;
16832;SDS011;8533;48.426;10.868;2023-04-19T05:17:27;24.60;;;12.03;;
16832;SDS011;8533;48.426;10.868;2023-04-19T05:19:55;23.97;;;12.30;;
16832;SDS011;8533;48.426;10.868;2023-04-19T05:22:23;19.67;;;10.60;;
16832;SDS011;8533;48.426;10.868;2023-04-19T05:24:50;28.93;;;12.43;;
16832;SDS011;8533;48.426;10.868;2023-04-19T05:27:18;24.60;;;11.67;;
16832;SDS011;8533;48.426;10.868;2023-04-19T05:29:45;21.93;;;11.13;;
16832;SDS011;8533;48.426;10.868;2023-04-19T05:32:13;20.93;;;10.60;;
16832;SDS011;8533;48.426;10.868;2023-04-19T05:34:41;24.60;;;12.37;;
16832;SDS011;8533;48.426;10.868;2023-04-19T05:37:08;25.07;;;11.27;;
16832;SDS011;8533;48.426;10.868;2023-04-19T05:39:35;22.87;;;11.23;;
16832;SDS011;8533;48.426;10.868;2023-04-19T05:42:03;25.10;;;11.50;;
16832;SDS011;8533;48.426;10.868;2023-04-19T05:44:31;25.33;;;12.50;;
16832;SDS011;8533;48.426;10.868;2023-04-19T05:47:00;24.47;;;12.37;;
16832;SDS011;8533;48.426;10.868;2023-04-19T05:49:27;26.50;;;11.80;;
16832;SDS011;8533;48.426;10.868;2023-04-19T05:51:54;23.33;;;11.20;;
16832;SDS011;8533;48.426;10.868;2023-04-19T05:54:22;27.40;;;12.47;;
16832;SDS011;8533;48.426;10.868;2023-04-19T05:56:49;19.40;;;10.17;;
16832;SDS011;8533;48.426;10.868;2023-04-19T05:59:18;24.53;;;11.43;;
16832;SDS011;8533;48.426;10.868;2023-04-19T06:01:45;22.33;;;10.83;;
16832;SDS011;8533;48.426;10.868;2023-04-19T06:04:12;21.60;;;10.57;;
16832;SDS011;8533;48.426;10.868;2023-04-19T06:06:41;23.00;;;11.13;;
16832;SDS011;8533;48.426;10.868;2023-04-19T06:09:08;23.50;;;11.13;;
16832;SDS011;8533;48.426;10.868;2023-04-19T06:11:38;21.23;;;10.30;;
16832;SDS011;8533;48.426;10.868;2023-04-19T06:14:05;21.83;;;11.33;;
16832;SDS011;8533;48.426;10.868;2023-04-19T06:16:34;24.67;;;10.77;;
16832;SDS011;8533;48.426;10.868;2023-04-19T06:19:01;19.33;;;10.67;;
16832;SDS011;8533;48.426;10.868;2023-04-19T06:21:29;20.80;;;10.17;;
16832;SDS011;8533;48.426;10.868;2023-04-19T06:23:57;20.77;;;10.20;;
16832;SDS011;8533;48.426;10.868;2023-04-19T06:26:25;22.80;;;9.80;;
16832;SDS011;8533;48.426;10.868;2023-04-19T06:28:52;20.70;;;10.67;;
16832;SDS011;8533;48.426;10.868;2023-04-19T06:31:20;21.63;;;10.67;;
16832;SDS011;8533;48.426;10.868;2023-04-19T06:33:47;19.73;;;10.80;;
16832;SDS011;8533;48.426;10.868;2023-04-19T06:36:18;20.00;;;10.30;;
16832;SDS011;8533;48.426;10.868;2023-04-19T06:38:46;21.20;;;10.47;;
16832;SDS011;8533;48.426;10.868;2023-04-19T06:41:14;29.97;;;11.00;;
16832;SDS011;8533;48.426;10.868;2023-04-19T06:43:42;20.03;;;10.90;;
16832;SDS011;8533;48.426;10.868;2023-04-19T06:46:09;19.23;;;10.20;;
16832;SDS011;8533;48.426;10.868;2023-04-19T06:48:38;23.23;;;10.80;;
16832;SDS011;8533;48.426;10.868;2023-04-19T06:51:06;25.50;;;10.93;;
16832;SDS011;8533;48.426;10.868;2023-04-19T06:53:34;18.10;;;9.20;;
16832;SDS011;8533;48.426;10.868;2023-04-19T06:56:02;22.13;;;10.33;;
16832;SDS011;8533;48.426;10.868;2023-04-19T06:58:31;22.83;;;10.60;;
16832;SDS011;8533;48.426;10.868;2023-04-19T07:00:58;19.30;;;10.03;;
16832;SDS011;8533;48.426;10.868;2023-04-19T07:03:26;17.13;;;10.13;;
16832;SDS011;8533;48.426;10.868;2023-04-19T07:05:54;21.87;;;11.13;;
16832;SDS011;8533;48.426;10.868;2023-04-19T07:08:22;21.20;;;10.17;;
16832;SDS011;8533;48.426;10.868;2023-04-19T07:10:50;21.80;;;11.20;;
16832;SDS011;8533;48.426;10.868;2023-04-19T07:13:18;17.40;;;9.97;;
16832;SDS011;8533;48.426;10.868;2023-04-19T07:15:46;19.47;;;10.00;;
16832;SDS011;8533;48.426;10.868;2023-04-19T07:18:13;20.10;;;9.90;;
16832;SDS011;8533;48.426;10.868;2023-04-19T07:20:40;19.27;;;10.40;;
16832;SDS011;8533;48.426;10.868;2023-04-19T07:23:10;21.07;;;10.60;;
16832;SDS011;8533;48.426;10.868;2023-04-19T07:25:38;21.80;;;10.90;;
16832;SDS011;8533;48.426;10.868;2023-04-19T07:28:05;20.60;;;10.33;;
16832;SDS011;8533;48.426;10.868;2023-04-19T07:30:34;23.30;;;9.50;;
16832;SDS011;8533;48.426;10.868;2023-04-19T07:33:02;22.73;;;10.73;;
16832;SDS011;8533;48.426;10.868;2023-04-19T07:35:31;23.33;;;10.40;;
16832;SDS011;8533;48.426;10.868;2023-04-19T07:37:59;24.83;;;10.47;;
16832;SDS011;8533;48.426;10.868;2023-04-19T07:40:26;23.43;;;10.17;;
16832;SDS011;8533;48.426;10.868;2023-04-19T07:42:54;22.83;;;10.20;;
16832;SDS011;8533;48.426;10.868;2023-04-19T07:45:22;18.63;;;10.20;;
16832;SDS011;8533;48.426;10.868;2023-04-19T07:47:49;17.13;;;9.40;;
16832;SDS011;8533;48.426;10.868;2023-04-19T07:50:17;18.90;;;9.80;;
16832;SDS011;8533;48.426;10.868;2023-04-19T07:52:44;22.97;;;10.10;;
16832;SDS011;8533;48.426;10.868;2023-04-19T07:55:11;21.40;;;10.47;;
16832;SDS011;8533;48.426;10.868;2023-04-19T07:57:39;19.30;;;10.00;;
16832;SDS011;8533;48.426;10.868;2023-04-19T08:00:09;17.03;;;9.13;;
16832;SDS011;8533;48.426;10.868;2023-04-19T08:02:37;21.43;;;9.93;;
16832;SDS011;8533;48.426;10.868;2023-04-19T08:05:05;18.73;;;9.53;;
16832;SDS011;8533;48.426;10.868;2023-04-19T08:07:33;17.67;;;9.37;;
16832;SDS011;8533;48.426;10.868;2023-04-19T08:10:01;20.80;;;10.33;;
16832;SDS011;8533;48.426;10.868;2023-04-19T08:12:28;19.57;;;9.50;;
16832;SDS011;8533;48.426;10.868;2023-04-19T08:14:56;17.20;;;9.47;;
16832;SDS011;8533;48.426;10.868;2023-04-19T08:17:23;19.70;;;9.90;;
16832;SDS011;8533;48.426;10.868;2023-04-19T08:19:51;19.03;;;9.17;;
16832;SDS011;8533;48.426;10.868;2023-04-19T08:22:19;19.93;;;9.87;;
16832;SDS011;8533;48.426;10.868;2023-04-19T08:24:50;17.73;;;9.60;;
16832;SDS011;8533;48.426;10.868;2023-04-19T08:27:18;15.33;;;8.53;;
16832;SDS011;8533;48.426;10.868;2023-04-19T08:29:47;18.17;;;8.90;;
16832;SDS011;8533;48.426;10.868;2023-04-19T08:32:14;14.53;;;8.67;;
16832;SDS011;8533;48.426;10.868;2023-04-19T08:34:41;18.70;;;9.20;;
16832;SDS011;8533;48.426;10.868;2023-04-19T08:37:09;16.83;;;9.17;;
16832;SDS011;8533;48.426;10.868;2023-04-19T08:39:36;17.83;;;9.60;;
16832;SDS011;8533;48.426;10.868;2023-04-19T08:42:06;17.27;;;9.00;;
16832;SDS011;8533;48.426;10.868;2023-04-19T08:44:35;18.17;;;9.80;;
16832;SDS011;8533;48.426;10.868;2023-04-19T08:47:03;16.27;;;8.30;;
16832;SDS011;8533;48.426;10.868;2023-04-19T08:49:35;19.13;;;9.67;;
16832;SDS011;8533;48.426;10.868;2023-04-19T08:52:09;20.73;;;10.33;;
16832;SDS011;8533;48.426;10.868;2023-04-19T08:54:38;19.23;;;10.20;;
16832;SDS011;8533;48.426;10.868;2023-04-19T08:57:07;25.47;;;10.47;;
16832;SDS011;8533;48.426;10.868;2023-04-19T08:59:36;15.57;;;9.40;;
16832;SDS011;8533;48.426;10.868;2023-04-19T09:02:04;20.00;;;9.10;;
16832;SDS011;8533;48.426;10.868;2023-04-19T09:07:03;19.07;;;10.10;;
16832;SDS011;8533;48.426;10.868;2023-04-19T09:09:32;17.87;;;9.17;;
16832;SDS011;8533;48.426;10.868;2023-04-19T09:12:01;14.90;;;7.80;;
16832;SDS011;8533;48.426;10.868;2023-04-19T09:14:28;16.23;;;8.77;;
16832;SDS011;8533;48.426;10.868;2023-04-19T09:17:11;14.30;;;9.37;;
16832;SDS011;8533;48.426;10.868;2023-04-19T09:19:45;24.00;;;11.00;;
16832;SDS011;8533;48.426;10.868;2023-04-19T09:24:41;15.30;;;8.57;;
16832;SDS011;8533;48.426;10.868;2023-04-19T09:27:09;13.03;;;7.37;;
16832;SDS011;8533;48.426;10.868;2023-04-19T09:29:37;15.50;;;7.67;;
16832;SDS011;8533;48.426;10.868;2023-04-19T09:32:04;16.90;;;9.07;;
16832;SDS011;8533;48.426;10.868;2023-04-19T09:34:32;17.23;;;9.40;;
16832;SDS011;8533;48.426;10.868;2023-04-19T09:37:34;16.90;;;8.47;;
16832;SDS011;8533;48.426;10.868;2023-04-19T09:42:07;16.07;;;8.70;;
16832;SDS011;8533;48.426;10.868;2023-04-19T09:44:35;18.37;;;9.50;;
16832;SDS011;8533;48.426;10.868;2023-04-19T09:47:26;16.93;;;8.97;;
16832;SDS011;8533;48.426;10.868;2023-04-19T09:50:02;18.10;;;9.50;;
16832;SDS011;8533;48.426;10.868;2023-04-19T09:55:00;15.60;;;8.47;;
16832;SDS011;8533;48.426;10.868;2023-04-19T09:57:33;17.80;;;8.50;;
16832;SDS011;8533;48.426;10.868;2023-04-19T10:00:01;17.00;;;8.27;;
16832;SDS011;8533;48.426;10.868;2023-04-19T10:02:30;16.33;;;8.90;;
16832;SDS011;8533;48.426;10.868;2023-04-19T10:04:58;16.33;;;9.10;;
16832;SDS011;8533;48.426;10.868;2023-04-19T10:07:26;16.50;;;8.23;;
16832;SDS011;8533;48.426;10.868;2023-04-19T10:09:56;16.60;;;8.60;;
16832;SDS011;8533;48.426;10.868;2023-04-19T10:12:25;18.20;;;8.57;;
16832;SDS011;8533;48.426;10.868;2023-04-19T10:14:53;15.00;;;8.63;;
16832;SDS011;8533;48.426;10.868;2023-04-19T10:17:25;16.57;;;9.00;;
16832;SDS011;8533;48.426;10.868;2023-04-19T10:20:00;15.67;;;9.63;;
16832;SDS011;8533;48.426;10.868;2023-04-19T10:25:14;23.47;;;10.63;;
16832;SDS011;8533;48.426;10.868;2023-04-19T10:27:43;17.10;;;9.60;;
16832;SDS011;8533;48.426;10.868;2023-04-19T10:30:18;15.97;;;8.63;;
16832;SDS011;8533;48.426;10.868;2023-04-19T10:35:17;16.67;;;9.30;;
16832;SDS011;8533;48.426;10.868;2023-04-19T10:43:29;18.07;;;8.37;;
16832;SDS011;8533;48.426;10.868;2023-04-19T10:45:58;18.10;;;9.50;;
16832;SDS011;8533;48.426;10.868;2023-04-19T10:51:15;19.87;;;10.27;;
16832;SDS011;8533;48.426;10.868;2023-04-19T10:53:48;18.93;;;9.70;;
16832;SDS011;8533;48.426;10.868;2023-04-19T11:01:35;18.60;;;10.00;;
16832;SDS011;8533;48.426;10.868;2023-04-19T11:09:26;20.60;;;10.35;;
16832;SDS011;8533;48.426;10.868;2023-04-19T11:14:35;20.83;;;10.90;;
16832;SDS011;8533;48.426;10.868;2023-04-19T11:17:20;23.73;;;11.17;;
16832;SDS011;8533;48.426;10.868;2023-04-19T11:19:53;20.53;;;10.70;;
16832;SDS011;8533;48.426;10.868;2023-04-19T11:22:29;20.70;;;10.60;;
16832;SDS011;8533;48.426;10.868;2023-04-19T11:27:36;22.13;;;11.20;;
16832;SDS011;8533;48.426;10.868;2023-04-19T11:30:06;22.57;;;10.83;;
16832;SDS011;8533;48.426;10.868;2023-04-19T11:32:44;19.67;;;10.77;;
16832;SDS011;8533;48.426;10.868;2023-04-19T11:37:40;23.03;;;12.23;;
16832;SDS011;8533;48.426;10.868;2023-04-19T11:40:08;23.00;;;11.87;;
16832;SDS011;8533;48.426;10.868;2023-04-19T11:42:37;21.73;;;11.53;;
16832;SDS011;8533;48.426;10.868;2023-04-19T11:45:04;24.43;;;12.47;;
16832;SDS011;8533;48.426;10.868;2023-04-19T11:47:32;19.57;;;11.20;;
16832;SDS011;8533;48.426;10.868;2023-04-19T11:52:59;23.60;;;11.43;;
16832;SDS011;8533;48.426;10.868;2023-04-19T11:58:06;23.43;;;11.23;;
16832;SDS011;8533;48.426;10.868;2023-04-19T12:00:35;20.97;;;10.90;;
16832;SDS011;8533;48.426;10.868;2023-04-19T12:03:03;22.83;;;12.37;;
16832;SDS011;8533;48.426;10.868;2023-04-19T12:05:30;20.40;;;11.30;;
16832;SDS011;8533;48.426;10.868;2023-04-19T12:08:02;20.57;;;10.50;;
16832;SDS011;8533;48.426;10.868;2023-04-19T12:13:00;20.30;;;9.33;;
16832;SDS011;8533;48.426;10.868;2023-04-19T12:15:45;16.10;;;8.85;;
16832;SDS011;8533;48.426;10.868;2023-04-19T12:18:13;15.00;;;8.77;;
16832;SDS011;8533;48.426;10.868;2023-04-19T12:20:44;16.33;;;8.60;;
16832;SDS011;8533;48.426;10.868;2023-04-19T12:23:14;14.43;;;8.30;;
16832;SDS011;8533;48.426;10.868;2023-04-19T12:25:45;12.50;;;7.07;;
16832;SDS011;8533;48.426;10.868;2023-04-19T12:28:14;15.83;;;8.50;;
16832;SDS011;8533;48.426;10.868;2023-04-19T12:30:42;19.40;;;7.77;;
16832;SDS011;8533;48.426;10.868;2023-04-19T12:33:10;16.07;;;8.07;;
16832;SDS011;8533;48.426;10.868;2023-04-19T12:35:38;12.80;;;7.40;;
16832;SDS011;8533;48.426;10.868;2023-04-19T12:38:05;14.97;;;7.50;;
16832;SDS011;8533;48.426;10.868;2023-04-19T12:40:33;16.17;;;7.87;;
16832;SDS011;8533;48.426;10.868;2023-04-19T12:43:01;14.73;;;7.93;;
16832;SDS011;8533;48.426;10.868;2023-04-19T12:45:30;13.37;;;6.03;;
16832;SDS011;8533;48.426;10.868;2023-04-19T12:47:57;12.53;;;6.60;;
16832;SDS011;8533;48.426;10.868;2023-04-19T12:50:30;14.03;;;7.07;;
16832;SDS011;8533;48.426;10.868;2023-04-19T12:52:54;13.80;;;6.47;;
16832;SDS011;8533;48.426;10.868;2023-04-19T12:55:22;11.80;;;6.20;;
16832;SDS011;8533;48.426;10.868;2023-04-19T12:57:49;12.37;;;5.70;;
16832;SDS011;8533;48.426;10.868;2023-04-19T13:00:17;13.67;;;6.17;;
16832;SDS011;8533;48.426;10.868;2023-04-19T13:02:45;9.70;;;5.20;;
16832;SDS011;8533;48.426;10.868;2023-04-19T13:05:13;11.43;;;6.23;;
16832;SDS011;8533;48.426;10.868;2023-04-19T13:07:41;11.53;;;6.40;;
16832;SDS011;8533;48.426;10.868;2023-04-19T13:10:08;13.30;;;7.07;;
16832;SDS011;8533;48.426;10.868;2023-04-19T13:12:37;12.53;;;6.53;;
16832;SDS011;8533;48.426;10.868;2023-04-19T13:15:05;13.87;;;6.80;;
16832;SDS011;8533;48.426;10.868;2023-04-19T13:17:35;13.83;;;7.30;;
16832;SDS011;8533;48.426;10.868;2023-04-19T13:20:02;14.33;;;7.73;;
16832;SDS011;8533;48.426;10.868;2023-04-19T13:22:31;17.13;;;8.87;;
16832;SDS011;8533;48.426;10.868;2023-04-19T13:24:58;15.80;;;9.03;;
16832;SDS011;8533;48.426;10.868;2023-04-19T13:27:26;20.10;;;9.70;;
16832;SDS011;8533;48.426;10.868;2023-04-19T13:29:54;18.40;;;9.60;;
16832;SDS011;8533;48.426;10.868;2023-04-19T13:32:22;16.87;;;9.27;;
16832;SDS011;8533;48.426;10.868;2023-04-19T13:34:49;17.43;;;9.83;;
16832;SDS011;8533;48.426;10.868;2023-04-19T13:37:16;20.83;;;10.83;;
16832;SDS011;8533;48.426;10.868;2023-04-19T13:39:45;21.40;;;10.10;;
16832;SDS011;8533;48.426;10.868;2023-04-19T13:42:12;17.73;;;9.60;;
16832;SDS011;8533;48.426;10.868;2023-04-19T13:44:40;21.03;;;10.80;;
16832;SDS011;8533;48.426;10.868;2023-04-19T13:47:08;18.27;;;9.67;;
16832;SDS011;8533;48.426;10.868;2023-04-19T13:49:36;17.13;;;9.37;;
16832;SDS011;8533;48.426;10.868;2023-04-19T13:52:03;17.37;;;9.70;;
16832;SDS011;8533;48.426;10.868;2023-04-19T13:54:31;16.73;;;9.03;;
16832;SDS011;8533;48.426;10.868;2023-04-19T13:56:59;15.73;;;8.50;;
16832;SDS011;8533;48.426;10.868;2023-04-19T13:59:27;14.93;;;8.23;;
16832;SDS011;8533;48.426;10.868;2023-04-19T14:01:54;19.00;;;8.67;;
16832;SDS011;8533;48.426;10.868;2023-04-19T14:04:22;15.27;;;8.03;;
16832;SDS011;8533;48.426;10.868;2023-04-19T14:06:49;16.33;;;8.60;;
16832;SDS011;8533;48.426;10.868;2023-04-19T14:09:18;13.83;;;7.97;;
16832;SDS011;8533;48.426;10.868;2023-04-19T14:11:45;15.17;;;7.97;;
16832;SDS011;8533;48.426;10.868;2023-04-19T14:14:14;14.43;;;8.50;;
16832;SDS011;8533;48.426;10.868;2023-04-19T14:16:42;17.77;;;8.17;;
16832;SDS011;8533;48.426;10.868;2023-04-19T14:19:09;14.00;;;7.57;;
16832;SDS011;8533;48.426;10.868;2023-04-19T14:21:37;15.23;;;7.53;;
16832;SDS011;8533;48.426;10.868;2023-04-19T14:24:04;15.93;;;7.90;;
16832;SDS011;8533;48.426;10.868;2023-04-19T14:26:32;14.20;;;7.93;;
16832;SDS011;8533;48.426;10.868;2023-04-19T14:28:59;14.67;;;8.30;;
16832;SDS011;8533;48.426;10.868;2023-04-19T14:31:27;14.70;;;7.50;;
16832;SDS011;8533;48.426;10.868;2023-04-19T14:33:54;12.47;;;7.67;;
16832;SDS011;8533;48.426;10.868;2023-04-19T14:36:24;13.50;;;8.00;;
16832;SDS011;8533;48.426;10.868;2023-04-19T14:38:53;13.50;;;8.47;;
16832;SDS011;8533;48.426;10.868;2023-04-19T14:41:20;16.27;;;7.90;;
16832;SDS011;8533;48.426;10.868;2023-04-19T14:43:49;14.67;;;7.40;;
16832;SDS011;8533;48.426;10.868;2023-04-19T14:46:16;12.07;;;7.27;;
16832;SDS011;8533;48.426;10.868;2023-04-19T14:48:44;13.03;;;6.90;;
16832;SDS011;8533;48.426;10.868;2023-04-19T14:51:12;12.77;;;7.77;;
16832;SDS011;8533;48.426;10.868;2023-04-19T14:53:39;14.90;;;7.70;;
16832;SDS011;8533;48.426;10.868;2023-04-19T14:56:07;16.60;;;8.00;;
16832;SDS011;8533;48.426;10.868;2023-04-19T14:58:34;17.37;;;8.53;;
16832;SDS011;8533;48.426;10.868;2023-04-19T15:01:09;13.87;;;8.37;;
16832;SDS011;8533;48.426;10.868;2023-04-19T15:06:04;16.20;;;9.07;;
16832;SDS011;8533;48.426;10.868;2023-04-19T15:08:33;16.50;;;8.70;;
16832;SDS011;8533;48.426;10.868;2023-04-19T15:11:01;14.80;;;8.90;;
16832;SDS011;8533;48.426;10.868;2023-04-19T15:13:28;19.93;;;10.30;;
16832;SDS011;8533;48.426;10.868;2023-04-19T15:15:56;18.70;;;9.93;;
16832;SDS011;8533;48.426;10.868;2023-04-19T15:18:24;18.67;;;9.93;;
16832;SDS011;8533;48.426;10.868;2023-04-19T15:20:52;22.73;;;11.43;;
16832;SDS011;8533;48.426;10.868;2023-04-19T15:23:22;17.40;;;10.10;;
16832;SDS011;8533;48.426;10.868;2023-04-19T15:25:50;19.40;;;9.93;;